Time;durP1;ratioP1;P1;durP2;ratioP2;P2;SDS_P1;SDS_P2;PMS_P1;PMS_P2;Temp;Humidity;BMP_temperature;BMP_pressure;BME280_temperature;BME280_humidity;BME280_pressure;Samples;Min_cycle;Max_cycle;Signal;HPM_P1;HPM_P2
2023/08/19 00:02:28;;;;;;;0.00;0.00;;;;;;;-145.06;100.00;39396.59;10324867;28;20033;-68
2023/08/19 00:07:28;;;;;;;0.10;0.10;;;;;;;-145.06;100.00;39366.34;10326330;28;20030;-68
2023/08/19 00:12:29;;;;;;;0.10;0.10;;;;;;;-145.06;100.00;39380.47;10306772;28;20018;-68
2023/08/19 00:17:29;;;;;;;0.00;0.00;;;;;;;-145.06;100.00;39342.13;10331911;28;20549;-68
2023/08/19 00:22:30;;;;;;;0.10;0.10;;;;;;;-145.06;100.00;39348.19;10314391;28;20023;-68
2023/08/19 00:27:30;;;;;;;0.00;0.00;;;;;;;-145.06;100.00;39350.19;10325271;28;20028;-68
2023/08/19 00:32:30;;;;;;;0.10;0.10;;;;;;;-145.06;100.00;39338.09;10329369;28;20022;-68
2023/08/19 00:37:32;;;;;;;0.10;0.10;;;;;;;-145.06;100.00;39323.97;10325454;28;20030;-68
2023/08/19 00:42:32;;;;;;;0.00;0.00;;;;;;;-145.06;100.00;39285.63;10330699;28;20503;-68
2023/08/19 00:47:32;;;;;;;0.00;0.00;;;;;;;-145.06;100.00;39289.66;10331131;28;20033;-68
2023/08/19 00:52:34;;;;;;;0.10;0.10;;;;;;;-145.06;100.00;39273.53;10307747;28;20025;-68
2023/08/19 00:57:36;;;;;;;0.10;0.10;;;;;;;-145.06;100.00;39247.31;10307713;28;20415;-68
2023/08/19 01:02:37;;;;;;;0.10;0.10;;;;;;;-145.06;100.00;39241.25;10306803;28;20134;-68
2023/08/19 01:07:57;;;;;;;0.00;0.00;;;;;;;-145.06;100.00;39257.38;10326352;28;20027;-69
2023/08/19 01:13:12;;;;;;;0.00;0.00;;;;;;;-145.06;100.00;39213.00;10322023;28;20030;-68
2023/08/19 01:18:15;;;;;;;0.00;0.00;;;;;;;-145.06;100.00;39241.25;10322376;28;20069;-68
2023/08/19 01:23:21;;;;;;;0.10;0.10;;;;;;;-145.06;100.00;39259.41;10298784;28;20117;-68
2023/08/19 01:28:21;;;;;;;0.00;0.00;;;;;;;-145.06;100.00;39225.09;10289326;28;20285;-69
2023/08/19 01:33:22;;;;;;;0.00;0.00;;;;;;;-145.06;100.00;39235.19;10329173;28;20018;-68
2023/08/19 01:38:22;;;;;;;0.00;0.00;;;;;;;-145.06;100.00;39241.25;10296034;28;20449;-68
2023/08/19 01:43:23;;;;;;;0.10;0.10;;;;;;;-145.06;100.00;39253.34;10328371;28;20061;-68
2023/08/19 01:48:23;;;;;;;0.00;0.00;;;;;;;-145.06;100.00;39251.34;10328779;28;20442;-68
2023/08/19 01:53:23;;;;;;;0.00;0.00;;;;;;;-145.06;100.00;39198.88;10328426;28;20036;-68
2023/08/19 01:58:24;;;;;;;0.10;0.10;;;;;;;-145.06;100.00;39140.38;10299473;28;20051;-69
2023/08/19 02:08:27;;;;;;;0.10;0.10;;;;;;;-145.06;100.00;39156.50;10390356;28;20818;-71
2023/08/19 02:13:27;;;;;;;0.10;0.10;;;;;;;-145.06;100.00;39168.63;10385322;28;20042;-71
2023/08/19 02:18:28;;;;;;;0.00;0.00;;;;;;;-145.06;100.00;39182.75;10383670;28;20115;-70
2023/08/19 02:23:28;;;;;;;0.00;0.00;;;;;;;-145.06;100.00;39174.66;10376145;28;20033;-69
2023/08/19 02:28:29;;;;;;;0.10;0.10;;;;;;;-145.06;100.00;39158.53;10386833;28;20469;-70
2023/08/19 02:33:29;;;;;;;0.10;0.10;;;;;;;-145.06;100.00;39144.41;10394445;28;20381;-67
2023/08/19 02:38:29;;;;;;;0.10;0.10;;;;;;;-145.06;100.00;39140.38;10380179;28;20033;-68
2023/08/19 02:43:30;;;;;;;0.00;0.00;;;;;;;-145.06;100.00;39168.63;10378763;28;20311;-67
2023/08/19 02:48:30;;;;;;;0.10;0.10;;;;;;;-145.06;100.00;39158.53;10386043;28;20031;-67
2023/08/19 02:53:31;;;;;;;0.00;0.00;;;;;;;-145.06;100.00;39178.69;10392512;28;20018;-67
2023/08/19 02:58:31;;;;;;;0.10;0.10;;;;;;;-145.06;100.00;39128.25;10381524;28;20439;-68
2023/08/19 03:03:31;;;;;;;0.10;0.10;;;;;;;-145.06;100.00;39130.28;10387013;28;20486;-68
2023/08/19 03:08:32;;;;;;;0.10;0.10;;;;;;;-145.06;100.00;39134.31;10390135;28;20478;-67
2023/08/19 03:13:32;;;;;;;0.00;0.00;;;;;;;-145.06;100.00;39162.56;10394561;28;20332;-67
2023/08/19 03:18:32;;;;;;;0.00;0.00;;;;;;;-145.06;100.00;39106.06;10384203;28;20264;-67
2023/08/19 03:23:33;;;;;;;0.00;0.00;;;;;;;-145.06;100.00;39075.81;10401406;28;20037;-67
2023/08/19 03:28:33;;;;;;;0.10;0.10;;;;;;;-145.06;100.00;39091.94;10380044;28;20033;-67
2023/08/19 03:33:33;;;;;;;0.10;0.10;;;;;;;-145.06;100.00;39069.75;10387051;28;20029;-67
2023/08/19 03:38:34;;;;;;;0.10;0.10;;;;;;;-145.06;100.00;39087.91;10394062;28;20022;-67
2023/08/19 03:43:34;;;;;;;0.00;0.00;;;;;;;-145.06;100.00;39079.84;10400597;28;20441;-67
2023/08/19 03:48:34;;;;;;;0.00;0.00;;;;;;;-145.06;100.00;39081.84;10401475;28;20489;-67
2023/08/19 03:53:34;;;;;;;0.10;0.10;;;;;;;-145.06;100.00;39071.78;10389707;28;20335;-67
2023/08/19 03:58:35;;;;;;;0.00;0.00;;;;;;;-145.06;100.00;39067.72;10375569;28;20029;-67
2023/08/19 04:03:35;;;;;;;0.08;0.08;;;;;;;-145.06;100.00;39081.84;10370856;28;20078;-67
2023/08/19 04:08:35;;;;;;;0.10;0.10;;;;;;;-145.06;100.00;39077.81;10367714;28;20038;-67
2023/08/19 04:13:36;;;;;;;0.00;0.00;;;;;;;-145.06;100.00;39073.78;10394185;28;20442;-67
2023/08/19 04:18:36;;;;;;;0.10;0.10;;;;;;;-145.06;100.00;39055.63;10376266;28;20500;-67
2023/08/19 04:23:37;;;;;;;0.00;0.00;;;;;;;-145.06;100.00;39041.50;10402888;28;20675;-67
2023/08/19 04:28:37;;;;;;;0.00;0.00;;;;;;;-145.06;100.00;38916.41;10378946;28;20033;-68
2023/08/19 04:33:38;;;;;;;0.10;0.10;;;;;;;-145.06;100.00;38855.91;10391349;28;20624;-69
2023/08/19 04:38:38;;;;;;;0.00;0.00;;;;;;;-145.06;100.00;38823.63;10354440;28;20024;-68
2023/08/19 04:43:39;;;;;;;0.10;0.10;;;;;;;-145.06;100.00;38880.09;10396174;28;20024;-68
2023/08/19 04:48:39;;;;;;;0.10;0.10;;;;;;;-145.06;100.00;38833.69;10395890;28;20107;-68
2023/08/19 04:53:39;;;;;;;0.00;0.00;;;;;;;-145.06;100.00;38892.22;10378319;28;20248;-68
2023/08/19 04:58:39;;;;;;;0.00;0.00;;;;;;;-145.06;100.00;38799.41;10392489;28;20022;-68
2023/08/19 05:03:40;;;;;;;0.00;0.00;;;;;;;-145.06;100.00;38636.00;10396250;28;20228;-68
2023/08/19 05:08:40;;;;;;;0.00;0.00;;;;;;;-145.06;100.00;38508.91;10389652;28;20029;-68
2023/08/19 05:13:42;;;;;;;0.00;0.00;;;;;;;-145.06;100.00;38490.75;10385049;28;20117;-68
2023/08/19 05:18:42;;;;;;;0.10;0.10;;;;;;;-145.06;100.00;38450.41;10387375;28;20034;-68
2023/08/19 05:23:43;;;;;;;0.05;0.05;;;;;;;-145.06;100.00;38508.91;10384344;28;20071;-69
2023/08/19 05:28:43;;;;;;;0.00;0.00;;;;;;;-145.06;100.00;38305.16;10386301;28;20029;-68
2023/08/19 05:33:43;;;;;;;0.00;0.00;;;;;;;-145.06;100.00;38071.19;10395463;28;20226;-68
2023/08/19 05:38:44;;;;;;;0.00;0.00;;;;;;;-145.06;100.00;38091.34;10395231;28;20386;-68
2023/08/19 05:43:44;;;;;;;0.00;0.00;;;;;;;-145.06;100.00;38145.81;10396261;28;20121;-68
2023/08/19 05:48:44;;;;;;;0.10;0.10;;;;;;;-145.06;100.00;37994.53;10384995;28;20025;-68
2023/08/19 05:53:45;;;;;;;0.00;0.00;;;;;;;-145.06;99.15;37825.13;10395491;28;20438;-68
2023/08/19 05:58:46;;;;;;;0.00;0.00;;;;;;;-145.06;94.90;37710.16;10377608;28;20092;-68
2023/08/19 06:03:46;;;;;;;0.10;0.10;;;;;;;-145.06;94.41;37679.91;10392005;28;20467;-68
2023/08/19 06:08:46;;;;;;;0.00;0.00;;;;;;;-145.06;91.61;37546.78;10390972;28;20025;-68
2023/08/19 06:13:47;;;;;;;0.10;0.10;;;;;;;-145.06;91.13;37435.88;10391200;28;20055;-69
2023/08/19 06:18:47;;;;;;;0.10;0.10;;;;;;;-145.06;86.86;37115.22;10369320;28;20040;-66
2023/08/19 06:23:47;;;;;;;0.10;0.10;;;;;;;-145.06;82.79;37080.94;10395641;28;20021;-68
2023/08/19 06:28:49;;;;;;;0.10;0.10;;;;;;;-145.06;82.44;37147.47;10377635;28;20029;-66
2023/08/19 06:33:54;;;;;;;0.03;0.03;;;;;;;-145.06;79.49;36917.59;10379427;28;20116;-66
2023/08/19 06:39:06;;;;;;;0.10;0.10;;;;;;;-145.06;80.03;36915.59;10385552;28;20350;-66
2023/08/19 06:44:07;;;;;;;0.10;0.10;;;;;;;-145.06;75.39;36790.56;10393237;28;20018;-67
2023/08/19 06:49:08;;;;;;;;;;;;;;;-145.06;77.83;36927.69;10382668;28;20021;-67
2023/08/19 06:54:09;;;;;;;0.10;0.10;;;;;;;-145.06;76.33;36853.06;10393461;28;19909;-66
2023/08/19 06:59:19;;;;;;;0.10;0.10;;;;;;;-145.06;75.90;36724.03;10379942;28;20176;-66
2023/08/19 07:04:22;;;;;;;0.10;0.10;;;;;;;-145.06;73.67;36592.97;10367594;28;20128;-66
2023/08/19 07:09:23;;;;;;;0.10;0.10;;;;;;;-145.06;75.52;36679.66;10367552;28;20041;-66
2023/08/19 07:14:25;;;;;;;0.10;0.10;;;;;;;-145.06;74.79;36492.16;10367890;28;20036;-68
2023/08/19 07:19:30;;;;;;;0.10;0.10;;;;;;;-145.06;74.42;36502.22;10385437;28;20026;-66
2023/08/19 07:24:32;;;;;;;0.10;0.10;;;;;;;-145.06;75.00;36621.19;10386568;28;20057;-65
2023/08/19 07:29:34;;;;;;;0.00;0.00;;;;;;;-145.06;76.82;36615.16;10373598;28;20018;-68
2023/08/19 07:34:35;;;;;;;0.10;0.10;;;;;;;-145.06;72.97;36429.66;10389496;28;20025;-68
2023/08/19 07:39:35;;;;;;;0.00;0.00;;;;;;;-145.06;71.65;36431.66;10382345;28;20029;-67
2023/08/19 07:44:35;;;;;;;0.10;0.10;;;;;;;-145.06;72.01;36480.06;10377904;28;20025;-67
2023/08/19 07:49:38;;;;;;;0.10;0.10;;;;;;;-145.06;72.68;36476.03;10394175;28;20032;-67
2023/08/19 07:54:38;;;;;;;0.10;0.10;;;;;;;-145.06;73.42;36326.81;10381169;28;20399;-67
2023/08/19 07:59:39;;;;;;;0.10;0.10;;;;;;;-145.06;73.50;36461.91;10365561;28;20029;-66
2023/08/19 08:04:40;;;;;;;0.10;0.10;;;;;;;-145.06;74.21;36778.47;10369671;28;20240;-69
2023/08/19 08:09:43;;;;;;;0.10;0.10;;;;;;;-145.06;74.16;36707.91;10382426;28;20036;-68
2023/08/19 08:14:44;;;;;;;0.10;0.10;;;;;;;-145.06;73.98;36681.69;10402941;28;20025;-68
2023/08/19 08:19:44;;;;;;;0.05;0.05;;;;;;;-145.06;72.46;36707.91;10402308;28;20026;-67
2023/08/19 08:24:44;;;;;;;0.10;0.10;;;;;;;-145.06;71.66;36738.13;10383883;28;20358;-68
2023/08/19 08:29:45;;;;;;;0.10;0.10;;;;;;;-145.06;75.37;36869.22;10392401;28;20014;-68
2023/08/19 08:34:45;;;;;;;0.10;0.10;;;;;;;-145.06;80.15;36978.09;10402490;28;20108;-67
2023/08/19 08:39:45;;;;;;;0.10;0.10;;;;;;;-145.06;81.43;37030.53;10402077;28;20386;-68
2023/08/19 08:44:49;;;;;;;0.10;0.10;;;;;;;-145.06;81.70;37018.44;10398096;28;20021;-68
2023/08/19 08:49:52;;;;;;;0.10;0.10;;;;;;;-145.06;81.56;36808.72;10388702;28;20028;-69
2023/08/19 08:54:55;;;;;;;0.10;0.10;;;;;;;-145.06;76.11;36730.06;10380005;28;20022;-68
2023/08/19 08:59:56;;;;;;;0.00;0.00;;;;;;;-145.06;76.81;36760.31;10385968;28;20021;-68
2023/08/19 09:04:57;;;;;;;0.10;0.10;;;;;;;-145.06;76.99;36740.16;10364230;28;20033;-67
2023/08/19 09:09:59;;;;;;;0.10;0.10;;;;;;;-145.06;74.64;36709.91;10395900;28;20036;-66
2023/08/19 09:15:03;;;;;;;0.10;0.10;;;;;;;-145.06;76.26;36667.56;10396047;28;20472;-67
2023/08/19 09:20:04;;;;;;;0.10;0.10;;;;;;;-145.06;75.34;36760.31;10378269;28;20116;-67
2023/08/19 09:25:14;;;;;;;0.10;0.10;;;;;;;-145.06;77.19;36572.81;10370899;28;20406;-68
2023/08/19 09:30:16;;;;;;;0.10;0.10;;;;;;;-145.06;74.00;36492.16;10379440;28;20013;-67
2023/08/19 09:35:16;;;;;;;0.10;0.10;;;;;;;-145.06;76.29;36500.22;10396472;28;20026;-67
2023/08/19 09:40:21;;;;;;;0.10;0.10;;;;;;;-145.06;72.13;36425.63;10387598;28;20374;-67
2023/08/19 09:45:22;;;;;;;0.10;0.10;;;;;;;-145.06;74.89;36427.63;10383852;28;20048;-67
2023/08/19 09:50:23;;;;;;;0.10;0.10;;;;;;;-145.06;75.19;36318.75;10391121;28;20036;-67
2023/08/19 09:55:25;;;;;;;0.00;0.00;;;;;;;-145.06;72.82;36361.09;10389775;28;20167;-67
2023/08/19 10:00:25;;;;;;;0.00;0.00;;;;;;;-145.06;73.12;36405.44;10393612;28;20124;-67
2023/08/19 10:05:30;;;;;;;0.00;0.00;;;;;;;-145.06;74.73;36357.06;10387253;28;20423;-67
2023/08/19 10:10:32;;;;;;;0.10;0.10;;;;;;;-145.06;75.53;36405.44;10391018;28;20025;-67
2023/08/19 10:15:35;;;;;;;0.00;0.00;;;;;;;-145.06;75.30;36496.19;10394763;28;20063;-67
2023/08/19 10:20:38;;;;;;;0.10;0.10;;;;;;;-145.06;76.81;36526.44;10401706;28;20034;-67
2023/08/19 10:25:41;;;;;;;0.10;0.10;;;;;;;-145.06;78.26;36542.56;10382279;28;20433;-67
2023/08/19 10:30:42;;;;;;;0.10;0.10;;;;;;;-145.06;78.59;36534.50;10401489;28;20021;-67
2023/08/19 10:36:00;;;;;;;0.05;0.05;;;;;;;-145.06;77.74;36562.72;10402337;28;20030;-67
2023/08/19 10:41:02;;;;;;;0.10;0.10;;;;;;;-145.06;77.83;36506.25;10390527;28;20109;-66
2023/08/19 10:46:02;;;;;;;;;;;;;;;-145.06;76.62;36558.69;10388129;28;20036;-67
2023/08/19 10:51:04;;;;;;;0.10;0.10;;;;;;;-145.06;79.35;36671.59;10394883;28;20398;-67
2023/08/19 10:56:12;;;;;;;0.10;0.10;;;;;;;-145.06;79.60;36675.63;10399780;28;20060;-67
2023/08/19 11:01:12;;;;;;;0.10;0.10;;;;;;;-145.06;79.77;36633.28;10381681;28;20401;-67
2023/08/19 11:06:12;;;;;;;0.10;0.10;;;;;;;-145.06;80.61;36534.50;10390498;28;20026;-67
2023/08/19 11:11:16;;;;;;;0.03;0.03;;;;;;;-145.06;80.29;36566.75;10383634;28;20028;-67
2023/08/19 11:16:16;;;;;;;0.00;0.00;;;;;;;-145.06;79.59;36621.19;10401004;28;20283;-66
2023/08/19 11:21:20;;;;;;;0.00;0.00;;;;;;;-145.06;81.49;36568.78;10392419;28;20038;-67
2023/08/19 11:26:20;;;;;;;0.10;0.10;;;;;;;-145.06;80.86;36601.03;10391638;28;20022;-66
2023/08/19 11:31:21;;;;;;;0.10;0.10;;;;;;;-145.06;81.92;36681.69;10396520;28;20336;-67
2023/08/19 11:36:25;;;;;;;0.00;0.00;;;;;;;-145.06;81.30;36701.84;10398130;28;20037;-66
2023/08/19 11:41:26;;;;;;;0.10;0.10;;;;;;;-145.06;86.92;36766.38;10409445;28;20486;-66
2023/08/19 11:46:30;;;;;;;0.10;0.10;;;;;;;-145.06;84.99;36895.41;10411432;28;20026;-67
2023/08/19 11:51:30;;;;;;;0.00;0.00;;;;;;;-145.06;87.43;36849.03;10404232;28;20108;-66
2023/08/19 11:56:45;;;;;;;0.10;0.10;;;;;;;-145.06;87.88;36911.56;10399429;28;20404;-66
2023/08/19 12:01:46;;;;;;;0.00;0.00;;;;;;;-145.06;89.43;36905.50;10400951;28;20386;-66
2023/08/19 12:06:47;;;;;;;0.00;0.00;;;;;;;-145.06;92.20;36925.66;10397741;28;20021;-66
2023/08/19 12:11:48;;;;;;;0.10;0.10;;;;;;;-145.06;93.30;36903.50;10380581;28;20029;-67
2023/08/19 12:16:48;;;;;;;0.00;0.00;;;;;;;-145.06;92.66;37000.28;10392263;28;20040;-66
2023/08/19 12:21:48;;;;;;;0.00;0.00;;;;;;;-145.06;92.87;36953.91;10407679;28;20025;-66
2023/08/19 12:26:49;;;;;;;0.00;0.00;;;;;;;-145.06;95.15;36966.00;10399535;28;20022;-67
2023/08/19 12:31:49;;;;;;;0.10;0.10;;;;;;;-145.06;96.39;36959.94;10393101;28;20021;-67
2023/08/19 12:36:50;;;;;;;0.00;0.00;;;;;;;-145.06;95.82;36939.78;10407726;28;20029;-67
2023/08/19 12:41:51;;;;;;;0.10;0.10;;;;;;;-145.06;94.69;36927.69;10398864;28;20057;-67
2023/08/19 12:46:53;;;;;;;0.10;0.10;;;;;;;-145.06;95.40;36941.78;10401814;28;20056;-67
2023/08/19 12:51:54;;;;;;;0.00;0.00;;;;;;;-145.06;93.37;37032.53;10401139;28;20207;-67
2023/08/19 12:56:54;;;;;;;0.10;0.10;;;;;;;-145.06;95.92;37002.28;10389977;28;20025;-67
2023/08/19 13:01:54;;;;;;;0.10;0.10;;;;;;;-145.06;95.33;37016.41;10387999;28;20033;-67
2023/08/19 13:06:55;;;;;;;0.00;0.00;;;;;;;-145.06;94.85;37070.84;10393305;28;20056;-67
2023/08/19 13:11:55;;;;;;;0.00;0.00;;;;;;;-145.06;94.70;37042.63;10386761;28;20113;-67
2023/08/19 13:16:55;;;;;;;0.10;0.10;;;;;;;-145.06;93.57;37099.09;10374572;28;20025;-67
2023/08/19 13:21:56;;;;;;;0.10;0.10;;;;;;;-145.06;92.56;37082.94;10393367;28;20018;-67
2023/08/19 13:26:57;;;;;;;0.00;0.00;;;;;;;-145.06;90.63;37119.25;10384893;28;20447;-66
2023/08/19 13:31:57;;;;;;;0.00;0.00;;;;;;;-145.06;90.82;37167.66;10364228;28;20028;-67
2023/08/19 13:36:57;;;;;;;0.00;0.00;;;;;;;-145.06;90.69;37167.66;10389812;28;20486;-67
2023/08/19 13:41:58;;;;;;;0.00;0.00;;;;;;;-145.06;91.65;37157.56;10391585;28;20036;-67
2023/08/19 13:46:58;;;;;;;0.10;0.10;;;;;;;-145.06;91.06;37187.81;10353494;28;20033;-67
2023/08/19 13:51:58;;;;;;;0.00;0.00;;;;;;;-145.06;92.30;37189.84;10355386;28;20029;-67
2023/08/19 13:56:59;;;;;;;0.00;0.00;;;;;;;-145.06;93.14;37181.75;10375270;28;20025;-67
2023/08/19 14:01:59;;;;;;;0.00;0.00;;;;;;;-145.06;92.94;37163.63;10390278;28;20044;-68
2023/08/19 14:06:59;;;;;;;0.03;0.03;;;;;;;-145.06;92.53;37133.38;10391639;28;20044;-67
2023/08/19 14:11:59;;;;;;;0.10;0.10;;;;;;;-145.06;94.95;37105.13;10385340;28;20091;-67
2023/08/19 14:17:00;;;;;;;0.00;0.00;;;;;;;-145.06;94.64;37139.41;10382053;28;20036;-67
2023/08/19 14:22:01;;;;;;;0.10;0.10;;;;;;;-145.06;95.43;37149.50;10382992;28;20547;-67
2023/08/19 14:27:02;;;;;;;0.10;0.10;;;;;;;-145.06;98.22;37153.53;10386428;28;20204;-67
2023/08/19 14:32:03;;;;;;;0.00;0.00;;;;;;;-145.06;99.45;37185.81;10367909;28;20190;-67
2023/08/19 14:37:04;;;;;;;0.10;0.10;;;;;;;-145.06;100.00;37242.25;10364551;28;20083;-67
2023/08/19 14:42:04;;;;;;;0.10;0.10;;;;;;;-145.06;100.00;37345.13;10364677;28;20371;-67
2023/08/19 14:47:06;;;;;;;0.10;0.10;;;;;;;-145.06;100.00;37377.38;10365602;28;20538;-67
2023/08/19 14:52:06;;;;;;;0.00;0.00;;;;;;;-145.06;100.00;37399.56;10365205;28;20052;-67
2023/08/19 14:57:06;;;;;;;0.00;0.00;;;;;;;-145.06;100.00;37474.19;10366894;28;20083;-67
2023/08/19 15:02:07;;;;;;;0.00;0.00;;;;;;;-145.06;100.00;37470.16;10391803;28;20048;-67
2023/08/19 15:07:08;;;;;;;0.10;0.10;;;;;;;-145.06;100.00;37486.28;10380150;28;20033;-66
2023/08/19 15:12:08;;;;;;;0.00;0.00;;;;;;;-145.06;100.00;37476.19;10360709;28;20021;-68
2023/08/19 15:17:08;;;;;;;0.00;0.00;;;;;;;-145.06;100.00;37526.63;10344786;28;20064;-67
2023/08/19 15:22:09;;;;;;;0.00;0.00;;;;;;;-145.06;100.00;37486.28;10358602;28;20026;-67
2023/08/19 15:27:11;;;;;;;0.00;0.00;;;;;;;-145.06;100.00;37462.09;10361309;28;20111;-67
2023/08/19 15:32:11;;;;;;;0.10;0.10;;;;;;;-145.06;100.00;37468.13;10358064;28;20045;-67
2023/08/19 15:37:14;;;;;;;0.10;0.10;;;;;;;-145.06;100.00;37476.19;10360432;28;20026;-67
2023/08/19 15:42:15;;;;;;;0.10;0.10;;;;;;;-145.06;100.00;37456.03;10353833;28;20014;-67
2023/08/19 15:47:16;;;;;;;0.00;0.00;;;;;;;-145.06;100.00;37445.94;10386338;28;20030;-67
2023/08/19 15:52:16;;;;;;;0.00;0.00;;;;;;;-145.06;100.00;37464.09;10370864;28;20018;-67
2023/08/19 15:57:16;;;;;;;0.00;0.00;;;;;;;-145.06;100.00;37464.09;10389834;28;20021;-67
2023/08/19 16:02:17;;;;;;;0.10;0.10;;;;;;;-145.06;100.00;37516.53;10395594;28;20284;-66
2023/08/19 16:07:17;;;;;;;0.10;0.10;;;;;;;-145.06;100.00;37474.19;10395826;28;20041;-67
2023/08/19 16:12:17;;;;;;;0.00;0.00;;;;;;;-145.06;100.00;37583.09;10367606;28;20392;-67
2023/08/19 16:17:18;;;;;;;0.00;0.00;;;;;;;-145.06;100.00;37554.84;10392258;28;20036;-65
2023/08/19 16:22:18;;;;;;;0.00;0.00;;;;;;;-145.06;100.00;37615.34;10389218;28;20084;-67
2023/08/19 16:27:18;;;;;;;0.00;0.00;;;;;;;-145.06;100.00;37627.47;10389825;28;20022;-67
2023/08/19 16:32:19;;;;;;;0.10;0.10;;;;;;;-145.06;100.00;37639.56;10382076;28;20017;-67
2023/08/19 16:37:20;;;;;;;0.00;0.00;;;;;;;-145.06;100.00;37647.63;10377858;28;20471;-66
2023/08/19 16:42:22;;;;;;;0.00;0.00;;;;;;;-145.06;100.00;37673.84;10374723;28;20053;-67
2023/08/19 16:47:22;;;;;;;;;;;;;;;-145.06;100.00;37724.28;10387122;28;20501;-67
2023/08/19 16:52:23;;;;;;;0.00;0.00;;;;;;;-145.06;100.00;37811.00;10397434;28;19916;-70
2023/08/19 16:57:23;;;;;;;0.00;0.00;;;;;;;-145.06;100.00;37905.78;10404329;28;20027;-71
2023/08/19 17:02:24;;;;;;;0.10;0.10;;;;;;;-145.06;100.00;38000.59;10384313;28;20030;-70
2023/08/19 17:07:24;;;;;;;0.00;0.00;;;;;;;-145.06;100.00;38087.31;10396855;28;20032;-71
2023/08/19 17:12:25;;;;;;;0.10;0.10;;;;;;;-145.06;100.00;38155.91;10388125;28;20021;-71
2023/08/19 17:17:25;;;;;;;0.00;0.00;;;;;;;-145.06;100.00;38272.91;10374237;28;20028;-70
2023/08/19 17:22:35;;;;;;;0.10;0.10;;;;;;;-145.06;100.00;38270.88;10395991;28;20029;-70
2023/08/19 17:27:35;;;;;;;0.00;0.00;;;;;;;-145.06;100.00;38329.38;10387698;28;20163;-70
2023/08/19 17:32:35;;;;;;;0.10;0.10;;;;;;;-145.06;100.00;38347.53;10388902;28;20072;-70
2023/08/19 17:37:36;;;;;;;0.10;0.10;;;;;;;-145.06;100.00;38329.38;10383823;28;20505;-70
2023/08/19 17:42:36;;;;;;;0.00;0.00;;;;;;;-145.06;100.00;38373.75;10380883;28;20076;-70
2023/08/19 17:47:37;;;;;;;0.00;0.00;;;;;;;-145.06;100.00;38393.94;10383769;28;20397;-70
2023/08/19 17:52:37;;;;;;;0.00;0.00;;;;;;;-145.06;100.00;38406.03;10386012;28;20107;-70
2023/08/19 17:57:37;;;;;;;0.00;0.00;;;;;;;-145.06;100.00;38385.84;10382437;28;20090;-69
2023/08/19 18:02:38;;;;;;;0.10;0.10;;;;;;;-145.06;100.00;38434.28;10394447;28;20022;-73
2023/08/19 18:07:38;;;;;;;0.00;0.00;;;;;;;-145.06;100.00;38436.28;10369951;28;20022;-70
2023/08/19 18:12:39;;;;;;;0.00;0.00;;;;;;;-145.06;100.00;38486.72;10397986;28;20415;-70
2023/08/19 18:17:39;;;;;;;0.00;0.00;;;;;;;-145.06;100.00;38508.91;10380878;28;20018;-70
2023/08/19 18:22:40;;;;;;;0.00;0.00;;;;;;;-145.06;100.00;38510.94;10376683;28;20382;-70
2023/08/19 18:27:46;;;;;;;0.00;0.00;;;;;;;-145.06;100.00;38510.94;10386121;28;20026;-69
2023/08/19 18:32:49;;;;;;;0.00;0.00;;;;;;;-145.06;100.00;38545.22;10375912;28;20105;-69
2023/08/19 18:37:50;;;;;;;0.10;0.10;;;;;;;-145.06;100.00;38573.47;10387384;28;20030;-72
2023/08/19 18:42:50;;;;;;;0.00;0.00;;;;;;;-145.06;100.00;38638.03;10366368;28;20038;-71
2023/08/19 18:48:05;;;;;;;0.00;0.00;;;;;;;-145.06;100.00;38688.44;10383234;28;20017;-70
2023/08/19 18:53:05;;;;;;;0.03;0.03;;;;;;;-145.06;100.00;38726.78;10401305;28;20048;-70
2023/08/19 18:58:06;;;;;;;0.00;0.00;;;;;;;-145.06;100.00;38815.53;10383885;28;20028;-69
2023/08/19 19:03:06;;;;;;;0.00;0.00;;;;;;;-145.06;100.00;38815.53;10401072;28;20031;-69
2023/08/19 19:08:07;;;;;;;0.10;0.10;;;;;;;-145.06;100.00;38821.59;10395292;28;20034;-69
2023/08/19 19:13:08;;;;;;;0.00;0.00;;;;;;;-145.06;100.00;38841.78;10392452;28;20026;-70
2023/08/19 19:18:08;;;;;;;0.00;0.00;;;;;;;-145.06;100.00;38920.47;10395244;28;20040;-70
2023/08/19 19:23:08;;;;;;;0.07;0.07;;;;;;;-145.06;100.00;38896.25;10363833;28;20041;-71
2023/08/19 19:28:09;;;;;;;0.00;0.00;;;;;;;-145.06;100.00;38995.09;10362236;28;20330;-69
2023/08/19 19:33:09;;;;;;;0.10;0.10;;;;;;;-145.06;100.00;38997.13;10379024;28;20022;-70
2023/08/19 19:38:09;;;;;;;0.00;0.00;;;;;;;-145.06;100.00;39021.34;10366845;28;20025;-69
2023/08/19 19:43:10;;;;;;;0.10;0.10;;;;;;;-145.06;100.00;39037.47;10377725;28;20072;-69
2023/08/19 19:48:10;;;;;;;0.00;0.00;;;;;;;-145.06;100.00;39065.72;10380268;28;20018;-69
2023/08/19 19:53:10;;;;;;;0.10;0.10;;;;;;;-145.06;100.00;39029.41;10385385;28;20322;-70
2023/08/19 19:58:11;;;;;;;0.00;0.00;;;;;;;-145.06;100.00;39059.66;10379949;28;20133;-70
2023/08/19 20:03:12;;;;;;;0.03;0.03;;;;;;;-145.06;100.00;39083.88;10394622;28;20080;-69
2023/08/19 20:08:13;;;;;;;0.00;0.00;;;;;;;-145.06;100.00;39108.09;10369372;28;20028;-69
2023/08/19 20:13:13;;;;;;;0.00;0.00;;;;;;;-145.06;100.00;39124.22;10386111;28;20027;-69
2023/08/19 20:18:13;;;;;;;0.10;0.10;;;;;;;-145.06;100.00;39180.72;10394385;28;20381;-69
2023/08/19 20:23:14;;;;;;;0.10;0.10;;;;;;;-145.06;100.00;39148.44;10394352;28;20024;-69
2023/08/19 20:28:14;;;;;;;0.10;0.10;;;;;;;-145.06;100.00;39168.63;10394900;28;20035;-69
2023/08/19 20:33:14;;;;;;;0.00;0.00;;;;;;;-145.06;100.00;39142.38;10392087;28;20523;-69
2023/08/19 20:38:14;;;;;;;0.00;0.00;;;;;;;-145.06;100.00;39168.63;10408764;28;20382;-68
2023/08/19 20:43:15;;;;;;;0.00;0.00;;;;;;;-145.06;100.00;39196.84;10393930;28;20060;-67
2023/08/19 20:48:15;;;;;;;0.10;0.10;;;;;;;-145.06;100.00;39188.78;10389654;28;20030;-67
2023/08/19 20:53:15;;;;;;;0.00;0.00;;;;;;;-145.06;100.00;39202.91;10377761;28;20010;-72
2023/08/19 20:58:16;;;;;;;0.10;0.10;;;;;;;-145.06;100.00;39225.09;10401091;28;20225;-67
2023/08/19 21:03:16;;;;;;;0.10;0.10;;;;;;;-145.06;100.00;39279.59;10399847;28;20026;-68
2023/08/19 21:08:16;;;;;;;0.00;0.00;;;;;;;-145.06;100.00;39271.50;10391388;28;20029;-68
2023/08/19 21:13:16;;;;;;;0.10;0.10;;;;;;;-145.06;100.00;39279.59;10388937;28;20021;-67
2023/08/19 21:18:17;;;;;;;0.10;0.10;;;;;;;-145.06;100.00;39317.91;10390920;28;20025;-67
2023/08/19 21:23:18;;;;;;;0.10;0.10;;;;;;;-145.06;100.00;39336.06;10396044;28;20022;-67
2023/08/19 21:28:18;;;;;;;0.10;0.10;;;;;;;-145.06;100.00;39368.38;10386129;28;20104;-67
2023/08/19 21:33:19;;;;;;;0.10;0.10;;;;;;;-145.06;100.00;39360.28;10387838;28;20014;-67
2023/08/19 21:38:20;;;;;;;0.00;0.00;;;;;;;-145.06;100.00;39374.41;10390333;28;20071;-67
2023/08/19 21:43:20;;;;;;;0.10;0.10;;;;;;;-145.06;100.00;39342.13;10355870;28;20364;-67
2023/08/19 21:48:20;;;;;;;0.10;0.10;;;;;;;-145.06;100.00;39434.94;10379296;28;20448;-68
2023/08/19 21:53:21;;;;;;;0.03;0.03;;;;;;;-145.06;100.00;39438.97;10368245;28;20018;-67
2023/08/19 21:58:21;;;;;;;0.00;0.00;;;;;;;-145.06;100.00;39420.81;10378940;28;20083;-68
2023/08/19 22:03:21;;;;;;;0.00;0.00;;;;;;;-145.06;100.00;39459.16;10384858;28;20025;-67
2023/08/19 22:08:22;;;;;;;0.10;0.10;;;;;;;-145.06;100.00;39426.88;10379509;28;20034;-67
2023/08/19 22:13:22;;;;;;;0.00;0.00;;;;;;;-145.06;100.00;39481.34;10384469;28;20124;-67
2023/08/19 22:18:23;;;;;;;0.00;0.00;;;;;;;-145.06;100.00;39483.38;10379353;28;20040;-67
2023/08/19 22:23:23;;;;;;;0.10;0.10;;;;;;;-145.06;100.00;39503.56;10389220;28;20026;-67
2023/08/19 22:28:23;;;;;;;0.10;0.10;;;;;;;-145.06;100.00;39499.50;10395134;28;20029;-67
2023/08/19 22:33:24;;;;;;;0.00;0.00;;;;;;;-145.06;100.00;39501.53;10389610;28;20025;-67
2023/08/19 22:38:24;;;;;;;0.10;0.10;;;;;;;-145.06;100.00;39547.94;10392334;28;20024;-67
2023/08/19 22:43:24;;;;;;;0.00;0.00;;;;;;;-145.06;100.00;39418.81;10387622;28;20037;-68